sensor_id;sensor_type;location;lat;lon;timestamp;P1;durP1;ratioP1;P2;durP2;ratioP2
7539;SDS011;3811;49.006;12.076;2023-05-10T00:00:55;5.60;;;3.20;;
7539;SDS011;3811;49.006;12.076;2023-05-10T00:03:22;3.17;;;2.93;;
7539;SDS011;3811;49.006;12.076;2023-05-10T00:05:49;3.53;;;2.97;;
7539;SDS011;3811;49.006;12.076;2023-05-10T00:08:17;3.63;;;2.90;;
7539;SDS011;3811;49.006;12.076;2023-05-10T00:10:44;3.57;;;3.10;;
7539;SDS011;3811;49.006;12.076;2023-05-10T00:13:11;3.40;;;3.20;;
7539;SDS011;3811;49.006;12.076;2023-05-10T00:15:40;3.37;;;3.03;;
7539;SDS011;3811;49.006;12.076;2023-05-10T00:18:07;3.10;;;2.80;;
7539;SDS011;3811;49.006;12.076;2023-05-10T00:20:35;3.50;;;3.00;;
7539;SDS011;3811;49.006;12.076;2023-05-10T00:23:02;2.97;;;2.77;;
7539;SDS011;3811;49.006;12.076;2023-05-10T00:25:29;3.17;;;2.80;;
7539;SDS011;3811;49.006;12.076;2023-05-10T00:27:56;3.43;;;3.13;;
7539;SDS011;3811;49.006;12.076;2023-05-10T00:30:24;3.97;;;3.10;;
7539;SDS011;3811;49.006;12.076;2023-05-10T00:32:52;3.87;;;2.83;;
7539;SDS011;3811;49.006;12.076;2023-05-10T00:35:19;3.53;;;3.23;;
7539;SDS011;3811;49.006;12.076;2023-05-10T00:37:47;4.53;;;3.50;;
7539;SDS011;3811;49.006;12.076;2023-05-10T00:40:15;3.20;;;2.90;;
7539;SDS011;3811;49.006;12.076;2023-05-10T00:42:46;3.67;;;3.30;;
7539;SDS011;3811;49.006;12.076;2023-05-10T00:45:13;3.50;;;3.20;;
7539;SDS011;3811;49.006;12.076;2023-05-10T00:47:41;4.13;;;3.73;;
7539;SDS011;3811;49.006;12.076;2023-05-10T00:50:09;3.10;;;2.90;;
7539;SDS011;3811;49.006;12.076;2023-05-10T00:52:37;3.87;;;2.97;;
7539;SDS011;3811;49.006;12.076;2023-05-10T00:55:04;3.30;;;2.90;;
7539;SDS011;3811;49.006;12.076;2023-05-10T00:57:32;3.50;;;3.17;;
7539;SDS011;3811;49.006;12.076;2023-05-10T01:00:00;4.07;;;3.20;;
7539;SDS011;3811;49.006;12.076;2023-05-10T01:02:28;4.63;;;3.00;;
7539;SDS011;3811;49.006;12.076;2023-05-10T01:04:55;4.03;;;3.27;;
7539;SDS011;3811;49.006;12.076;2023-05-10T01:07:24;3.80;;;3.50;;
7539;SDS011;3811;49.006;12.076;2023-05-10T01:09:51;3.60;;;3.30;;
7539;SDS011;3811;49.006;12.076;2023-05-10T01:12:19;4.60;;;3.30;;
7539;SDS011;3811;49.006;12.076;2023-05-10T01:14:47;3.37;;;3.17;;
7539;SDS011;3811;49.006;12.076;2023-05-10T01:17:14;4.53;;;3.73;;
7539;SDS011;3811;49.006;12.076;2023-05-10T01:19:42;4.03;;;3.63;;
7539;SDS011;3811;49.006;12.076;2023-05-10T01:22:13;4.47;;;3.50;;
7539;SDS011;3811;49.006;12.076;2023-05-10T01:33:23;3.83;;;3.53;;
7539;SDS011;3811;49.006;12.076;2023-05-10T01:35:54;3.67;;;3.37;;
7539;SDS011;3811;49.006;12.076;2023-05-10T01:38:27;3.90;;;3.60;;
7539;SDS011;3811;49.006;12.076;2023-05-10T01:41:01;3.20;;;3.00;;
7539;SDS011;3811;49.006;12.076;2023-05-10T01:43:35;5.30;;;3.63;;
7539;SDS011;3811;49.006;12.076;2023-05-10T01:46:05;5.73;;;3.60;;
7539;SDS011;3811;49.006;12.076;2023-05-10T01:48:37;3.70;;;3.40;;
7539;SDS011;3811;49.006;12.076;2023-05-10T01:51:13;5.30;;;3.70;;
7539;SDS011;3811;49.006;12.076;2023-05-10T01:53:45;4.37;;;3.50;;
7539;SDS011;3811;49.006;12.076;2023-05-10T01:56:15;3.83;;;3.53;;
7539;SDS011;3811;49.006;12.076;2023-05-10T01:58:44;4.57;;;3.53;;
7539;SDS011;3811;49.006;12.076;2023-05-10T02:01:12;4.83;;;3.83;;
7539;SDS011;3811;49.006;12.076;2023-05-10T02:03:41;4.57;;;3.90;;
7539;SDS011;3811;49.006;12.076;2023-05-10T02:06:10;3.60;;;3.30;;
7539;SDS011;3811;49.006;12.076;2023-05-10T02:08:38;4.47;;;3.93;;
7539;SDS011;3811;49.006;12.076;2023-05-10T02:11:06;4.20;;;3.80;;
7539;SDS011;3811;49.006;12.076;2023-05-10T02:13:34;4.00;;;3.70;;
7539;SDS011;3811;49.006;12.076;2023-05-10T02:16:05;5.50;;;3.70;;
7539;SDS011;3811;49.006;12.076;2023-05-10T02:18:32;4.30;;;3.90;;
7539;SDS011;3811;49.006;12.076;2023-05-10T02:21:02;4.03;;;3.70;;
7539;SDS011;3811;49.006;12.076;2023-05-10T02:23:29;4.23;;;3.83;;
7539;SDS011;3811;49.006;12.076;2023-05-10T02:25:57;4.90;;;4.17;;
7539;SDS011;3811;49.006;12.076;2023-05-10T02:28:25;4.27;;;3.87;;
7539;SDS011;3811;49.006;12.076;2023-05-10T02:30:54;5.60;;;4.03;;
7539;SDS011;3811;49.006;12.076;2023-05-10T02:33:22;4.67;;;4.23;;
7539;SDS011;3811;49.006;12.076;2023-05-10T02:35:51;4.97;;;4.47;;
7539;SDS011;3811;49.006;12.076;2023-05-10T02:38:20;4.80;;;4.50;;
7539;SDS011;3811;49.006;12.076;2023-05-10T02:40:49;5.00;;;4.40;;
7539;SDS011;3811;49.006;12.076;2023-05-10T02:43:17;5.23;;;4.73;;
7539;SDS011;3811;49.006;12.076;2023-05-10T02:45:46;5.00;;;4.50;;
7539;SDS011;3811;49.006;12.076;2023-05-10T02:48:14;6.40;;;4.60;;
7539;SDS011;3811;49.006;12.076;2023-05-10T02:50:42;6.23;;;4.37;;
7539;SDS011;3811;49.006;12.076;2023-05-10T02:53:13;4.23;;;3.93;;
7539;SDS011;3811;49.006;12.076;2023-05-10T02:55:43;5.67;;;4.60;;
7539;SDS011;3811;49.006;12.076;2023-05-10T02:58:15;5.63;;;4.70;;
7539;SDS011;3811;49.006;12.076;2023-05-10T03:00:44;5.00;;;4.50;;
7539;SDS011;3811;49.006;12.076;2023-05-10T03:03:11;5.80;;;5.03;;
7539;SDS011;3811;49.006;12.076;2023-05-10T03:05:39;5.20;;;4.70;;
7539;SDS011;3811;49.006;12.076;2023-05-10T03:08:06;4.53;;;4.13;;
7539;SDS011;3811;49.006;12.076;2023-05-10T03:10:37;5.50;;;4.90;;
7539;SDS011;3811;49.006;12.076;2023-05-10T03:13:10;5.43;;;4.93;;
7539;SDS011;3811;49.006;12.076;2023-05-10T03:15:46;6.50;;;4.93;;
7539;SDS011;3811;49.006;12.076;2023-05-10T03:18:21;6.13;;;5.17;;
7539;SDS011;3811;49.006;12.076;2023-05-10T03:20:49;5.90;;;5.33;;
7539;SDS011;3811;49.006;12.076;2023-05-10T03:23:20;6.43;;;5.40;;
7539;SDS011;3811;49.006;12.076;2023-05-10T03:25:51;5.57;;;5.07;;
7539;SDS011;3811;49.006;12.076;2023-05-10T03:28:20;6.40;;;5.80;;
7539;SDS011;3811;49.006;12.076;2023-05-10T03:30:50;5.70;;;5.20;;
7539;SDS011;3811;49.006;12.076;2023-05-10T03:33:19;6.33;;;5.70;;
7539;SDS011;3811;49.006;12.076;2023-05-10T03:35:46;6.10;;;5.53;;
7539;SDS011;3811;49.006;12.076;2023-05-10T03:38:14;7.33;;;5.33;;
7539;SDS011;3811;49.006;12.076;2023-05-10T03:40:42;6.60;;;5.40;;
7539;SDS011;3811;49.006;12.076;2023-05-10T03:43:09;7.47;;;5.83;;
7539;SDS011;3811;49.006;12.076;2023-05-10T03:45:37;7.13;;;5.27;;
7539;SDS011;3811;49.006;12.076;2023-05-10T03:48:05;8.57;;;6.10;;
7539;SDS011;3811;49.006;12.076;2023-05-10T03:50:32;7.23;;;5.87;;
7539;SDS011;3811;49.006;12.076;2023-05-10T03:52:59;6.67;;;5.87;;
7539;SDS011;3811;49.006;12.076;2023-05-10T03:55:27;6.97;;;6.33;;
7539;SDS011;3811;49.006;12.076;2023-05-10T03:57:55;7.87;;;6.17;;
7539;SDS011;3811;49.006;12.076;2023-05-10T04:00:23;10.07;;;6.40;;
7539;SDS011;3811;49.006;12.076;2023-05-10T04:02:54;7.63;;;6.70;;
7539;SDS011;3811;49.006;12.076;2023-05-10T04:05:22;7.90;;;5.83;;
7539;SDS011;3811;49.006;12.076;2023-05-10T04:07:51;8.77;;;6.60;;
7539;SDS011;3811;49.006;12.076;2023-05-10T04:10:18;8.70;;;6.77;;
7539;SDS011;3811;49.006;12.076;2023-05-10T04:12:46;8.33;;;6.20;;
7539;SDS011;3811;49.006;12.076;2023-05-10T04:15:13;9.13;;;6.93;;
7539;SDS011;3811;49.006;12.076;2023-05-10T04:17:40;7.83;;;7.00;;
7539;SDS011;3811;49.006;12.076;2023-05-10T04:20:10;9.30;;;6.97;;
7539;SDS011;3811;49.006;12.076;2023-05-10T04:22:37;7.67;;;6.80;;
7539;SDS011;3811;49.006;12.076;2023-05-10T04:25:05;6.83;;;6.13;;
7539;SDS011;3811;49.006;12.076;2023-05-10T04:27:32;8.10;;;6.50;;
7539;SDS011;3811;49.006;12.076;2023-05-10T04:29:59;8.10;;;6.77;;
7539;SDS011;3811;49.006;12.076;2023-05-10T04:32:27;8.57;;;7.17;;
7539;SDS011;3811;49.006;12.076;2023-05-10T04:34:54;8.70;;;7.73;;
7539;SDS011;3811;49.006;12.076;2023-05-10T04:37:22;7.47;;;6.70;;
7539;SDS011;3811;49.006;12.076;2023-05-10T04:39:50;7.93;;;7.13;;
7539;SDS011;3811;49.006;12.076;2023-05-10T04:42:17;7.73;;;6.93;;
7539;SDS011;3811;49.006;12.076;2023-05-10T04:44:44;8.70;;;7.10;;
7539;SDS011;3811;49.006;12.076;2023-05-10T04:47:11;10.13;;;7.30;;
7539;SDS011;3811;49.006;12.076;2023-05-10T04:49:39;8.20;;;7.00;;
7539;SDS011;3811;49.006;12.076;2023-05-10T04:52:06;9.93;;;7.50;;
7539;SDS011;3811;49.006;12.076;2023-05-10T04:54:35;12.90;;;7.43;;
7539;SDS011;3811;49.006;12.076;2023-05-10T04:57:02;8.40;;;7.07;;
7539;SDS011;3811;49.006;12.076;2023-05-10T04:59:29;8.07;;;7.27;;
7539;SDS011;3811;49.006;12.076;2023-05-10T05:01:57;9.00;;;7.83;;
7539;SDS011;3811;49.006;12.076;2023-05-10T05:04:24;9.30;;;7.50;;
7539;SDS011;3811;49.006;12.076;2023-05-10T05:06:51;8.47;;;7.63;;
7539;SDS011;3811;49.006;12.076;2023-05-10T05:09:18;8.67;;;7.57;;
7539;SDS011;3811;49.006;12.076;2023-05-10T05:11:47;7.43;;;6.73;;
7539;SDS011;3811;49.006;12.076;2023-05-10T05:14:14;8.03;;;7.23;;
7539;SDS011;3811;49.006;12.076;2023-05-10T05:16:41;8.63;;;7.70;;
7539;SDS011;3811;49.006;12.076;2023-05-10T05:19:11;11.40;;;8.67;;
7539;SDS011;3811;49.006;12.076;2023-05-10T05:21:41;8.50;;;7.70;;
7539;SDS011;3811;49.006;12.076;2023-05-10T05:24:14;10.33;;;8.13;;
7539;SDS011;3811;49.006;12.076;2023-05-10T05:26:41;10.20;;;8.23;;
7539;SDS011;3811;49.006;12.076;2023-05-10T05:29:10;9.77;;;8.20;;
7539;SDS011;3811;49.006;12.076;2023-05-10T05:31:37;9.80;;;8.13;;
7539;SDS011;3811;49.006;12.076;2023-05-10T05:34:04;10.10;;;8.27;;
7539;SDS011;3811;49.006;12.076;2023-05-10T05:36:32;9.23;;;8.07;;
7539;SDS011;3811;49.006;12.076;2023-05-10T05:39:03;9.97;;;7.80;;
7539;SDS011;3811;49.006;12.076;2023-05-10T05:41:30;9.10;;;8.07;;
7539;SDS011;3811;49.006;12.076;2023-05-10T05:43:57;9.40;;;8.00;;
7539;SDS011;3811;49.006;12.076;2023-05-10T05:46:26;10.10;;;7.90;;
7539;SDS011;3811;49.006;12.076;2023-05-10T05:48:53;7.97;;;6.83;;
7539;SDS011;3811;49.006;12.076;2023-05-10T05:51:20;9.47;;;7.30;;
7539;SDS011;3811;49.006;12.076;2023-05-10T05:53:47;9.27;;;7.93;;
7539;SDS011;3811;49.006;12.076;2023-05-10T05:56:14;11.27;;;8.03;;
7539;SDS011;3811;49.006;12.076;2023-05-10T05:58:42;9.57;;;7.67;;
7539;SDS011;3811;49.006;12.076;2023-05-10T06:01:10;8.60;;;7.70;;
7539;SDS011;3811;49.006;12.076;2023-05-10T06:03:38;11.40;;;8.17;;
7539;SDS011;3811;49.006;12.076;2023-05-10T06:06:05;11.93;;;7.63;;
7539;SDS011;3811;49.006;12.076;2023-05-10T06:08:33;10.20;;;8.20;;
7539;SDS011;3811;49.006;12.076;2023-05-10T06:11:00;10.17;;;7.90;;
7539;SDS011;3811;49.006;12.076;2023-05-10T06:13:29;8.93;;;7.63;;
7539;SDS011;3811;49.006;12.076;2023-05-10T06:15:57;8.43;;;7.47;;
7539;SDS011;3811;49.006;12.076;2023-05-10T06:18:25;9.93;;;8.10;;
7539;SDS011;3811;49.006;12.076;2023-05-10T06:20:53;7.90;;;7.10;;
7539;SDS011;3811;49.006;12.076;2023-05-10T06:23:21;8.90;;;7.33;;
7539;SDS011;3811;49.006;12.076;2023-05-10T06:25:48;8.87;;;8.07;;
7539;SDS011;3811;49.006;12.076;2023-05-10T06:28:15;8.87;;;7.87;;
7539;SDS011;3811;49.006;12.076;2023-05-10T06:30:42;9.17;;;7.93;;
7539;SDS011;3811;49.006;12.076;2023-05-10T06:33:09;9.70;;;7.90;;
7539;SDS011;3811;49.006;12.076;2023-05-10T06:35:37;8.37;;;7.47;;
7539;SDS011;3811;49.006;12.076;2023-05-10T06:38:05;11.10;;;7.53;;
7539;SDS011;3811;49.006;12.076;2023-05-10T06:40:33;9.57;;;8.20;;
7539;SDS011;3811;49.006;12.076;2023-05-10T06:43:01;9.30;;;7.67;;
7539;SDS011;3811;49.006;12.076;2023-05-10T06:45:28;9.93;;;8.00;;
7539;SDS011;3811;49.006;12.076;2023-05-10T06:47:55;9.17;;;8.20;;
7539;SDS011;3811;49.006;12.076;2023-05-10T06:50:22;12.20;;;8.73;;
7539;SDS011;3811;49.006;12.076;2023-05-10T06:52:49;11.77;;;9.00;;
7539;SDS011;3811;49.006;12.076;2023-05-10T06:55:18;9.40;;;8.03;;
7539;SDS011;3811;49.006;12.076;2023-05-10T06:57:45;10.97;;;8.13;;
7539;SDS011;3811;49.006;12.076;2023-05-10T07:00:13;10.73;;;8.23;;
7539;SDS011;3811;49.006;12.076;2023-05-10T07:02:41;8.63;;;7.70;;
7539;SDS011;3811;49.006;12.076;2023-05-10T07:05:08;9.57;;;8.57;;
7539;SDS011;3811;49.006;12.076;2023-05-10T07:07:35;8.80;;;7.90;;
7539;SDS011;3811;49.006;12.076;2023-05-10T07:10:03;8.83;;;7.97;;
7539;SDS011;3811;49.006;12.076;2023-05-10T07:12:31;9.27;;;7.87;;
7539;SDS011;3811;49.006;12.076;2023-05-10T07:14:59;10.03;;;8.53;;
7539;SDS011;3811;49.006;12.076;2023-05-10T07:17:28;9.23;;;7.83;;
7539;SDS011;3811;49.006;12.076;2023-05-10T07:19:55;8.60;;;7.70;;
7539;SDS011;3811;49.006;12.076;2023-05-10T07:22:23;10.83;;;8.77;;
7539;SDS011;3811;49.006;12.076;2023-05-10T07:24:50;10.40;;;8.97;;
7539;SDS011;3811;49.006;12.076;2023-05-10T07:27:17;10.07;;;8.83;;
7539;SDS011;3811;49.006;12.076;2023-05-10T07:29:46;9.67;;;8.67;;
7539;SDS011;3811;49.006;12.076;2023-05-10T07:32:13;8.60;;;7.70;;
7539;SDS011;3811;49.006;12.076;2023-05-10T07:34:40;9.03;;;8.13;;
7539;SDS011;3811;49.006;12.076;2023-05-10T07:37:08;8.63;;;7.83;;
7539;SDS011;3811;49.006;12.076;2023-05-10T07:39:35;10.90;;;8.07;;
7539;SDS011;3811;49.006;12.076;2023-05-10T07:42:03;8.40;;;7.60;;
7539;SDS011;3811;49.006;12.076;2023-05-10T07:44:30;8.57;;;7.67;;
7539;SDS011;3811;49.006;12.076;2023-05-10T07:46:59;8.33;;;7.53;;
7539;SDS011;3811;49.006;12.076;2023-05-10T07:49:26;7.60;;;6.90;;
7539;SDS011;3811;49.006;12.076;2023-05-10T07:51:53;7.10;;;6.40;;
7539;SDS011;3811;49.006;12.076;2023-05-10T07:54:21;7.20;;;6.50;;
7539;SDS011;3811;49.006;12.076;2023-05-10T07:56:48;6.30;;;5.70;;
7539;SDS011;3811;49.006;12.076;2023-05-10T07:59:15;6.00;;;5.37;;
7539;SDS011;3811;49.006;12.076;2023-05-10T08:01:43;7.00;;;6.30;;
7539;SDS011;3811;49.006;12.076;2023-05-10T08:04:12;6.57;;;5.97;;
7539;SDS011;3811;49.006;12.076;2023-05-10T08:06:39;7.63;;;6.63;;
7539;SDS011;3811;49.006;12.076;2023-05-10T08:09:07;5.63;;;5.13;;
7539;SDS011;3811;49.006;12.076;2023-05-10T08:11:34;7.07;;;5.70;;
7539;SDS011;3811;49.006;12.076;2023-05-10T08:14:02;5.77;;;5.27;;
7539;SDS011;3811;49.006;12.076;2023-05-10T08:16:29;5.53;;;5.10;;
7539;SDS011;3811;49.006;12.076;2023-05-10T08:18:57;6.17;;;4.90;;
7539;SDS011;3811;49.006;12.076;2023-05-10T08:21:26;4.83;;;4.43;;
7539;SDS011;3811;49.006;12.076;2023-05-10T08:23:53;7.97;;;4.73;;
7539;SDS011;3811;49.006;12.076;2023-05-10T08:26:19;5.40;;;4.90;;
7539;SDS011;3811;49.006;12.076;2023-05-10T08:28:47;5.43;;;4.93;;
7539;SDS011;3811;49.006;12.076;2023-05-10T08:31:14;5.13;;;4.60;;
7539;SDS011;3811;49.006;12.076;2023-05-10T08:33:43;5.10;;;4.60;;
7539;SDS011;3811;49.006;12.076;2023-05-10T08:36:10;4.63;;;4.23;;
7539;SDS011;3811;49.006;12.076;2023-05-10T08:38:40;5.37;;;4.83;;
7539;SDS011;3811;49.006;12.076;2023-05-10T08:41:07;6.63;;;4.93;;
7539;SDS011;3811;49.006;12.076;2023-05-10T08:43:34;3.23;;;2.93;;
7539;SDS011;3811;49.006;12.076;2023-05-10T08:46:02;3.97;;;3.07;;
7539;SDS011;3811;49.006;12.076;2023-05-10T08:48:33;4.20;;;3.10;;
7539;SDS011;3811;49.006;12.076;2023-05-10T08:51:01;3.17;;;2.87;;
7539;SDS011;3811;49.006;12.076;2023-05-10T08:53:30;2.77;;;2.57;;
7539;SDS011;3811;49.006;12.076;2023-05-10T08:56:00;2.00;;;1.80;;
7539;SDS011;3811;49.006;12.076;2023-05-10T08:58:28;2.10;;;2.00;;
7539;SDS011;3811;49.006;12.076;2023-05-10T09:00:55;1.30;;;1.30;;
7539;SDS011;3811;49.006;12.076;2023-05-10T09:03:24;1.53;;;1.50;;
7539;SDS011;3811;49.006;12.076;2023-05-10T09:05:51;2.40;;;1.10;;
7539;SDS011;3811;49.006;12.076;2023-05-10T09:08:20;1.30;;;1.20;;
7539;SDS011;3811;49.006;12.076;2023-05-10T09:10:50;1.20;;;1.10;;
7539;SDS011;3811;49.006;12.076;2023-05-10T09:13:19;0.77;;;0.77;;
7539;SDS011;3811;49.006;12.076;2023-05-10T09:15:47;1.00;;;1.00;;
7539;SDS011;3811;49.006;12.076;2023-05-10T09:18:14;1.13;;;1.03;;
7539;SDS011;3811;49.006;12.076;2023-05-10T09:20:41;1.17;;;1.03;;
7539;SDS011;3811;49.006;12.076;2023-05-10T09:23:08;1.00;;;1.00;;
7539;SDS011;3811;49.006;12.076;2023-05-10T09:25:35;1.00;;;1.00;;
7539;SDS011;3811;49.006;12.076;2023-05-10T09:28:05;1.00;;;1.00;;
7539;SDS011;3811;49.006;12.076;2023-05-10T09:30:35;1.33;;;1.23;;
7539;SDS011;3811;49.006;12.076;2023-05-10T09:33:02;1.40;;;1.33;;
7539;SDS011;3811;49.006;12.076;2023-05-10T09:35:30;1.00;;;1.00;;
7539;SDS011;3811;49.006;12.076;2023-05-10T09:38:00;0.90;;;0.90;;
7539;SDS011;3811;49.006;12.076;2023-05-10T09:40:29;1.30;;;1.20;;
7539;SDS011;3811;49.006;12.076;2023-05-10T09:42:57;2.17;;;1.30;;
7539;SDS011;3811;49.006;12.076;2023-05-10T09:45:25;1.00;;;1.00;;
7539;SDS011;3811;49.006;12.076;2023-05-10T09:47:55;1.00;;;1.00;;
7539;SDS011;3811;49.006;12.076;2023-05-10T09:50:22;1.27;;;1.20;;
7539;SDS011;3811;49.006;12.076;2023-05-10T09:52:50;1.13;;;1.03;;
7539;SDS011;3811;49.006;12.076;2023-05-10T09:55:19;0.90;;;0.90;;
7539;SDS011;3811;49.006;12.076;2023-05-10T09:57:47;1.00;;;1.00;;
7539;SDS011;3811;49.006;12.076;2023-05-10T10:00:16;1.40;;;1.30;;
7539;SDS011;3811;49.006;12.076;2023-05-10T10:02:45;1.10;;;1.10;;
7539;SDS011;3811;49.006;12.076;2023-05-10T10:05:15;1.10;;;1.10;;
7539;SDS011;3811;49.006;12.076;2023-05-10T10:07:42;1.90;;;1.20;;
7539;SDS011;3811;49.006;12.076;2023-05-10T10:10:09;1.13;;;1.13;;
7539;SDS011;3811;49.006;12.076;2023-05-10T10:12:40;1.10;;;1.10;;
7539;SDS011;3811;49.006;12.076;2023-05-10T10:15:08;1.20;;;1.20;;
7539;SDS011;3811;49.006;12.076;2023-05-10T10:17:35;1.23;;;1.20;;
7539;SDS011;3811;49.006;12.076;2023-05-10T10:20:04;1.10;;;1.10;;
7539;SDS011;3811;49.006;12.076;2023-05-10T10:22:34;0.87;;;0.87;;
7539;SDS011;3811;49.006;12.076;2023-05-10T10:25:01;1.27;;;1.00;;
7539;SDS011;3811;49.006;12.076;2023-05-10T10:27:32;1.60;;;1.00;;
7539;SDS011;3811;49.006;12.076;2023-05-10T10:30:10;1.00;;;1.00;;
7539;SDS011;3811;49.006;12.076;2023-05-10T10:32:57;0.90;;;0.90;;
7539;SDS011;3811;49.006;12.076;2023-05-10T10:35:33;1.10;;;1.00;;
7539;SDS011;3811;49.006;12.076;2023-05-10T10:38:02;0.73;;;0.73;;
7539;SDS011;3811;49.006;12.076;2023-05-10T10:40:30;0.90;;;0.90;;
7539;SDS011;3811;49.006;12.076;2023-05-10T10:42:57;1.00;;;0.90;;
7539;SDS011;3811;49.006;12.076;2023-05-10T10:45:25;3.70;;;1.10;;
7539;SDS011;3811;49.006;12.076;2023-05-10T10:50:51;0.77;;;0.77;;
7539;SDS011;3811;49.006;12.076;2023-05-10T10:53:24;1.10;;;1.00;;
7539;SDS011;3811;49.006;12.076;2023-05-10T10:56:01;0.80;;;0.80;;
7539;SDS011;3811;49.006;12.076;2023-05-10T10:58:33;0.80;;;0.80;;
7539;SDS011;3811;49.006;12.076;2023-05-10T11:01:13;0.87;;;0.87;;
7539;SDS011;3811;49.006;12.076;2023-05-10T11:03:54;0.80;;;0.80;;
7539;SDS011;3811;49.006;12.076;2023-05-10T11:06:36;1.03;;;1.03;;
7539;SDS011;3811;49.006;12.076;2023-05-10T11:09:07;1.10;;;1.00;;
7539;SDS011;3811;49.006;12.076;2023-05-10T11:11:35;0.80;;;0.80;;
7539;SDS011;3811;49.006;12.076;2023-05-10T11:14:03;1.43;;;0.90;;
7539;SDS011;3811;49.006;12.076;2023-05-10T11:16:40;0.70;;;0.70;;
7539;SDS011;3811;49.006;12.076;2023-05-10T11:19:09;0.73;;;0.73;;
7539;SDS011;3811;49.006;12.076;2023-05-10T11:21:44;1.20;;;0.90;;
7539;SDS011;3811;49.006;12.076;2023-05-10T11:24:14;0.70;;;0.70;;
7539;SDS011;3811;49.006;12.076;2023-05-10T11:26:42;1.57;;;0.80;;
7539;SDS011;3811;49.006;12.076;2023-05-10T11:29:09;0.97;;;0.97;;
7539;SDS011;3811;49.006;12.076;2023-05-10T11:31:41;1.00;;;0.70;;
7539;SDS011;3811;49.006;12.076;2023-05-10T11:34:10;0.90;;;0.90;;
7539;SDS011;3811;49.006;12.076;2023-05-10T11:36:39;2.17;;;1.00;;
7539;SDS011;3811;49.006;12.076;2023-05-10T11:39:06;0.90;;;0.90;;
7539;SDS011;3811;49.006;12.076;2023-05-10T11:41:36;2.17;;;0.87;;
7539;SDS011;3811;49.006;12.076;2023-05-10T11:44:03;1.10;;;1.10;;
7539;SDS011;3811;49.006;12.076;2023-05-10T11:46:30;1.20;;;1.10;;
7539;SDS011;3811;49.006;12.076;2023-05-10T11:48:58;1.07;;;1.07;;
7539;SDS011;3811;49.006;12.076;2023-05-10T11:51:29;0.73;;;0.73;;
7539;SDS011;3811;49.006;12.076;2023-05-10T11:53:59;1.10;;;0.90;;
7539;SDS011;3811;49.006;12.076;2023-05-10T11:56:26;0.90;;;0.90;;
7539;SDS011;3811;49.006;12.076;2023-05-10T11:58:55;2.10;;;1.10;;
7539;SDS011;3811;49.006;12.076;2023-05-10T12:01:23;1.00;;;0.90;;
7539;SDS011;3811;49.006;12.076;2023-05-10T12:03:51;1.00;;;1.00;;
7539;SDS011;3811;49.006;12.076;2023-05-10T12:06:20;0.87;;;0.87;;
7539;SDS011;3811;49.006;12.076;2023-05-10T12:08:48;0.80;;;0.80;;
7539;SDS011;3811;49.006;12.076;2023-05-10T12:11:17;0.87;;;0.87;;
7539;SDS011;3811;49.006;12.076;2023-05-10T12:13:47;1.03;;;0.77;;
7539;SDS011;3811;49.006;12.076;2023-05-10T12:16:19;1.37;;;0.90;;
7539;SDS011;3811;49.006;12.076;2023-05-10T12:18:48;0.90;;;0.90;;
7539;SDS011;3811;49.006;12.076;2023-05-10T12:21:16;1.13;;;0.80;;
7539;SDS011;3811;49.006;12.076;2023-05-10T12:23:44;0.80;;;0.80;;
7539;SDS011;3811;49.006;12.076;2023-05-10T12:26:12;0.93;;;0.93;;
7539;SDS011;3811;49.006;12.076;2023-05-10T12:28:40;0.93;;;0.93;;
7539;SDS011;3811;49.006;12.076;2023-05-10T12:31:07;1.63;;;0.90;;
7539;SDS011;3811;49.006;12.076;2023-05-10T12:33:37;1.67;;;0.90;;
7539;SDS011;3811;49.006;12.076;2023-05-10T12:36:07;0.90;;;0.90;;
7539;SDS011;3811;49.006;12.076;2023-05-10T12:38:36;1.03;;;0.83;;
7539;SDS011;3811;49.006;12.076;2023-05-10T12:41:04;1.10;;;1.00;;
7539;SDS011;3811;49.006;12.076;2023-05-10T12:43:32;1.90;;;1.20;;
7539;SDS011;3811;49.006;12.076;2023-05-10T12:46:04;1.80;;;1.03;;
7539;SDS011;3811;49.006;12.076;2023-05-10T12:48:31;0.87;;;0.87;;
7539;SDS011;3811;49.006;12.076;2023-05-10T12:51:01;1.33;;;1.10;;
7539;SDS011;3811;49.006;12.076;2023-05-10T12:53:28;2.93;;;1.10;;
7539;SDS011;3811;49.006;12.076;2023-05-10T12:55:55;0.90;;;0.90;;
7539;SDS011;3811;49.006;12.076;2023-05-10T12:58:22;1.00;;;1.00;;
7539;SDS011;3811;49.006;12.076;2023-05-10T13:00:49;2.93;;;1.00;;
7539;SDS011;3811;49.006;12.076;2023-05-10T13:03:17;1.20;;;0.90;;
7539;SDS011;3811;49.006;12.076;2023-05-10T13:05:45;0.93;;;0.93;;
7539;SDS011;3811;49.006;12.076;2023-05-10T13:08:14;0.70;;;0.70;;
7539;SDS011;3811;49.006;12.076;2023-05-10T13:10:41;1.73;;;0.90;;
7539;SDS011;3811;49.006;12.076;2023-05-10T13:13:08;1.10;;;1.00;;
7539;SDS011;3811;49.006;12.076;2023-05-10T13:15:36;1.13;;;1.03;;
7539;SDS011;3811;49.006;12.076;2023-05-10T13:18:03;1.17;;;1.17;;
7539;SDS011;3811;49.006;12.076;2023-05-10T13:20:30;1.40;;;1.30;;
7539;SDS011;3811;49.006;12.076;2023-05-10T13:22:58;1.63;;;1.40;;
7539;SDS011;3811;49.006;12.076;2023-05-10T13:25:27;1.73;;;1.23;;
7539;SDS011;3811;49.006;12.076;2023-05-10T13:27:54;1.70;;;1.23;;
7539;SDS011;3811;49.006;12.076;2023-05-10T13:30:21;1.80;;;1.10;;
7539;SDS011;3811;49.006;12.076;2023-05-10T13:32:49;1.47;;;1.37;;
7539;SDS011;3811;49.006;12.076;2023-05-10T13:35:16;1.20;;;1.10;;
7539;SDS011;3811;49.006;12.076;2023-05-10T13:37:43;2.60;;;1.13;;
7539;SDS011;3811;49.006;12.076;2023-05-10T13:40:10;1.63;;;1.43;;
7539;SDS011;3811;49.006;12.076;2023-05-10T13:42:40;1.03;;;1.03;;
7539;SDS011;3811;49.006;12.076;2023-05-10T13:45:07;1.60;;;1.50;;
7539;SDS011;3811;49.006;12.076;2023-05-10T13:47:34;1.33;;;1.20;;
7539;SDS011;3811;49.006;12.076;2023-05-10T13:50:02;1.70;;;1.10;;
7539;SDS011;3811;49.006;12.076;2023-05-10T13:52:29;2.53;;;1.50;;
7539;SDS011;3811;49.006;12.076;2023-05-10T13:54:57;2.03;;;1.90;;
7539;SDS011;3811;49.006;12.076;2023-05-10T13:57:24;3.50;;;3.20;;
7539;SDS011;3811;49.006;12.076;2023-05-10T13:59:52;2.20;;;2.00;;
7539;SDS011;3811;49.006;12.076;2023-05-10T14:02:20;3.07;;;2.27;;
7539;SDS011;3811;49.006;12.076;2023-05-10T14:04:47;2.20;;;2.00;;
7539;SDS011;3811;49.006;12.076;2023-05-10T14:07:14;2.97;;;2.30;;
7539;SDS011;3811;49.006;12.076;2023-05-10T14:09:41;1.70;;;1.60;;
7539;SDS011;3811;49.006;12.076;2023-05-10T14:12:09;1.83;;;1.63;;
7539;SDS011;3811;49.006;12.076;2023-05-10T14:14:36;1.67;;;1.57;;
7539;SDS011;3811;49.006;12.076;2023-05-10T14:17:04;2.47;;;2.27;;
7539;SDS011;3811;49.006;12.076;2023-05-10T14:19:32;4.00;;;2.80;;
7539;SDS011;3811;49.006;12.076;2023-05-10T14:21:59;2.03;;;1.87;;
7539;SDS011;3811;49.006;12.076;2023-05-10T14:24:26;3.17;;;2.13;;
7539;SDS011;3811;49.006;12.076;2023-05-10T14:26:53;3.63;;;1.73;;
7539;SDS011;3811;49.006;12.076;2023-05-10T14:29:21;2.23;;;1.80;;
7539;SDS011;3811;49.006;12.076;2023-05-10T14:31:48;2.10;;;1.73;;
7539;SDS011;3811;49.006;12.076;2023-05-10T14:34:17;1.93;;;1.83;;
7539;SDS011;3811;49.006;12.076;2023-05-10T14:36:44;2.00;;;1.90;;
7539;SDS011;3811;49.006;12.076;2023-05-10T14:39:11;2.13;;;1.90;;
7539;SDS011;3811;49.006;12.076;2023-05-10T14:41:38;1.73;;;1.63;;
7539;SDS011;3811;49.006;12.076;2023-05-10T14:44:08;2.00;;;1.80;;
7539;SDS011;3811;49.006;12.076;2023-05-10T14:46:35;1.60;;;1.50;;
7539;SDS011;3811;49.006;12.076;2023-05-10T14:49:02;1.87;;;1.30;;
7539;SDS011;3811;49.006;12.076;2023-05-10T14:51:31;2.00;;;1.80;;
7539;SDS011;3811;49.006;12.076;2023-05-10T14:53:58;3.30;;;3.03;;
7539;SDS011;3811;49.006;12.076;2023-05-10T14:56:26;3.43;;;2.50;;
7539;SDS011;3811;49.006;12.076;2023-05-10T14:58:53;2.70;;;2.37;;
7539;SDS011;3811;49.006;12.076;2023-05-10T15:01:20;2.63;;;2.43;;
7539;SDS011;3811;49.006;12.076;2023-05-10T15:03:48;1.87;;;1.70;;
7539;SDS011;3811;49.006;12.076;2023-05-10T15:06:16;4.00;;;2.47;;
7539;SDS011;3811;49.006;12.076;2023-05-10T15:08:44;2.60;;;2.43;;
7539;SDS011;3811;49.006;12.076;2023-05-10T15:11:11;2.57;;;2.37;;
7539;SDS011;3811;49.006;12.076;2023-05-10T15:13:38;2.30;;;2.10;;
7539;SDS011;3811;49.006;12.076;2023-05-10T15:16:05;3.07;;;2.30;;
7539;SDS011;3811;49.006;12.076;2023-05-10T15:18:33;3.40;;;2.30;;